KGTF/GTF METAR and TAF weather

Enter ICAO airport designator
Station Type Date Time Source
KGTF METAR 2021/09/28 02:53 UTC NOAA

KGTF 280253Z 09008KT 10SM CLR 16/M02 A2968 RMK AO2 SLP027 T01611022 56012


Station Type Date Time Source
KGTF Decoded METAR 2021/09/28 02:53 UTC NOAA

GREAT FALLS INTERNATIONAL, MT, United States (KGTF) 47-28N 111-23W 1119M
Sep 27, 2021 - 10:53 PM EDT / 2021.09.28 0253 UTC
Wind: from the E (090 degrees) at 9 MPH (8 KT):0
Visibility: 10 mile(s):0
Sky conditions: clear
Temperature: 61.0 F (16.1 C)
Dew Point: 28.0 F (-2.2 C)
Relative Humidity: 28%
Pressure (altimeter): 29.68 in. Hg (1005 hPa)
Pressure tendency: 0.04 inches (1.2 hPa) lower than three hours ago
ob: KGTF 280253Z 09008KT 10SM CLR 16/M02 A2968 RMK AO2 SLP027 T01611022 56012
cycle: 3

Station Type Date Time Source
KGTF TAF 2021/09/27 18:27 UTC NOAA

TAF KGTF 271725Z 2718/2818 23013G21KT P6SM HZ FEW250
FM280000 27009KT P6SM HZ FEW250
FM280300 VRB05KT P6SM HZ FEW250
FM281600 27009KT P6SM BKN150

Example: see airport list